Time,TemperatureF,DewpointF,PressureIn,WindDirection,WindDirectionDegrees,WindSpeedMPH,WindSpeedGustMPH,Humidity,HourlyPrecipIn,Conditions,Clouds,dailyrainin,SoftwareType,DateUTC
2013-09-15 00:01:00,49.3,43.6,29.90,NW,315,0.0,0.0,81,0.00,,,0.00,WUHU21623XXSP,2013-09-15 04:01:00,
2013-09-15 00:02:00,49.3,43.6,29.90,NW,315,0.0,0.0,81,0.00,,,0.00,WUHU21623XXSP,2013-09-15 04:02:00,
2013-09-15 00:07:00,49.3,43.6,29.90,NW,315,0.0,0.0,81,0.00,,,0.00,WUHU21623XXSP,2013-09-15 04:07:00,
2013-09-15 00:12:00,49.5,43.5,29.90,NW,315,0.0,0.0,80,0.00,,,0.00,WUHU21623XXSP,2013-09-15 04:12:00,
2013-09-15 00:17:00,49.6,43.7,29.90,NW,315,0.0,0.0,80,0.00,,,0.00,WUHU21623XXSP,2013-09-15 04:17:00,
2013-09-15 00:22:00,49.6,43.7,29.90,NW,315,0.0,0.0,80,0.00,,,0.00,WUHU21623XXSP,2013-09-15 04:22:00,
2013-09-15 00:27:00,49.6,43.7,29.90,NW,315,0.0,0.0,80,0.00,,,0.00,WUHU21623XXSP,2013-09-15 04:27:00,
2013-09-15 00:32:00,49.6,43.7,29.90,NW,315,0.0,0.0,80,0.00,,,0.00,WUHU21623XXSP,2013-09-15 04:32:00,
2013-09-15 00:37:00,49.6,43.7,29.90,NW,315,0.0,0.0,80,0.00,,,0.00,WUHU21623XXSP,2013-09-15 04:37:00,
2013-09-15 00:42:00,49.6,43.7,29.91,NW,315,0.0,0.0,80,0.00,,,0.00,WUHU21623XXSP,2013-09-15 04:42:00,
2013-09-15 00:47:00,49.5,43.5,29.91,NW,315,0.0,0.0,80,0.00,,,0.00,WUHU21623XXSP,2013-09-15 04:47:00,
2013-09-15 00:52:00,49.3,43.3,29.90,NW,315,0.0,0.0,80,0.00,,,0.00,WUHU21623XXSP,2013-09-15 04:52:00,
2013-09-15 00:57:00,49.1,43.2,29.90,NW,315,0.0,0.0,80,0.00,,,0.00,WUHU21623XXSP,2013-09-15 04:57:00,
2013-09-15 01:02:00,49.1,43.2,29.90,NW,315,0.0,0.0,80,0.00,,,0.00,WUHU21623XXSP,2013-09-15 05:02:00,
2013-09-15 01:07:00,48.9,43.0,29.90,NW,315,0.0,0.0,80,0.00,,,0.00,WUHU21623XXSP,2013-09-15 05:07:00,
2013-09-15 01:12:00,48.7,42.8,29.90,NW,315,0.0,0.0,80,0.00,,,0.00,WUHU21623XXSP,2013-09-15 05:12:00,
2013-09-15 01:17:00,48.7,42.8,29.90,NW,315,0.0,0.0,80,0.00,,,0.00,WUHU21623XXSP,2013-09-15 05:17:00,
2013-09-15 01:22:00,48.6,42.6,29.90,NW,315,0.0,0.0,80,0.00,,,0.00,WUHU21623XXSP,2013-09-15 05:22:00,
2013-09-15 01:27:00,48.4,42.4,29.90,NW,315,0.0,0.0,80,0.00,,,0.00,WUHU21623XXSP,2013-09-15 05:27:00,
2013-09-15 01:32:00,48.4,42.4,29.90,NW,315,0.0,0.0,80,0.00,,,0.00,WUHU21623XXSP,2013-09-15 05:32:00,
2013-09-15 01:37:00,48.0,42.1,29.90,NW,315,0.0,0.0,80,0.00,,,0.00,WUHU21623XXSP,2013-09-15 05:37:00,
2013-09-15 01:42:00,48.0,42.1,29.89,NW,315,0.0,0.0,80,0.00,,,0.00,WUHU21623XXSP,2013-09-15 05:42:00,
2013-09-15 01:47:00,48.0,42.1,29.90,NW,315,0.0,0.0,80,0.00,,,0.00,WUHU21623XXSP,2013-09-15 05:47:00,
2013-09-15 01:52:00,48.0,42.1,29.90,NW,315,0.0,0.0,80,0.00,,,0.00,WUHU21623XXSP,2013-09-15 05:52:00,
2013-09-15 01:57:00,48.0,42.1,29.90,NW,315,0.0,0.0,80,0.00,,,0.00,WUHU21623XXSP,2013-09-15 05:57:00,
2013-09-15 02:02:00,48.0,42.1,29.90,NW,315,0.0,0.0,80,0.00,,,0.00,WUHU21623XXSP,2013-09-15 06:02:00,
2013-09-15 02:07:00,47.8,42.2,29.89,NW,315,0.0,0.0,81,0.00,,,0.00,WUHU21623XXSP,2013-09-15 06:07:00,
2013-09-15 02:12:00,47.8,42.2,29.89,NW,315,0.0,0.0,81,0.00,,,0.00,WUHU21623XXSP,2013-09-15 06:12:00,
2013-09-15 02:17:00,47.8,42.2,29.90,NW,315,0.0,0.0,81,0.00,,,0.00,WUHU21623XXSP,2013-09-15 06:17:00,
2013-09-15 02:22:00,47.7,41.8,29.90,NW,315,0.0,0.0,80,0.00,,,0.00,WUHU21623XXSP,2013-09-15 06:22:00,
2013-09-15 02:27:00,47.8,42.2,29.90,NW,315,0.0,0.0,81,0.00,,,0.00,WUHU21623XXSP,2013-09-15 06:27:00,
2013-09-15 02:32:00,47.8,42.2,29.90,NW,315,0.0,0.0,81,0.00,,,0.00,WUHU21623XXSP,2013-09-15 06:32:00,
2013-09-15 02:37:00,47.8,42.2,29.90,NW,315,0.0,0.0,81,0.00,,,0.00,WUHU21623XXSP,2013-09-15 06:37:00,
2013-09-15 02:42:00,47.8,42.2,29.90,NW,315,0.0,0.0,81,0.00,,,0.00,WUHU21623XXSP,2013-09-15 06:42:00,
2013-09-15 02:47:00,47.8,42.2,29.91,NW,315,0.0,0.0,81,0.00,,,0.00,WUHU21623XXSP,2013-09-15 06:47:00,
2013-09-15 02:52:00,48.0,42.4,29.90,NW,315,0.0,0.0,81,0.00,,,0.00,WUHU21623XXSP,2013-09-15 06:52:00,
2013-09-15 02:57:00,48.0,42.4,29.90,NW,315,0.0,0.0,81,0.00,,,0.00,WUHU21623XXSP,2013-09-15 06:57:00,
2013-09-15 03:02:00,48.0,42.4,29.90,NW,315,0.0,0.0,81,0.00,,,0.00,WUHU21623XXSP,2013-09-15 07:02:00,
2013-09-15 03:07:00,48.0,42.4,29.90,NW,315,0.0,0.0,81,0.00,,,0.00,WUHU21623XXSP,2013-09-15 07:07:00,
2013-09-15 03:12:00,48.0,42.4,29.90,NW,315,0.0,0.0,81,0.00,,,0.00,WUHU21623XXSP,2013-09-15 07:12:00,
2013-09-15 03:17:00,48.0,42.4,29.90,NW,315,0.0,0.0,81,0.00,,,0.00,WUHU21623XXSP,2013-09-15 07:17:00,
2013-09-15 03:22:00,48.0,42.7,29.89,NW,315,0.0,0.0,82,0.00,,,0.00,WUHU21623XXSP,2013-09-15 07:22:00,
2013-09-15 03:27:00,48.2,42.9,29.89,NW,315,0.0,0.0,82,0.00,,,0.00,WUHU21623XXSP,2013-09-15 07:27:00,
2013-09-15 03:32:00,48.2,42.6,29.89,NW,315,0.0,0.0,81,0.00,,,0.00,WUHU21623XXSP,2013-09-15 07:32:00,
2013-09-15 03:37:00,48.4,43.1,29.89,NW,315,0.0,0.0,82,0.00,,,0.00,WUHU21623XXSP,2013-09-15 07:37:00,
2013-09-15 03:42:00,48.4,43.1,29.89,NW,315,0.0,0.0,82,0.00,,,0.00,WUHU21623XXSP,2013-09-15 07:42:00,
2013-09-15 03:47:00,48.6,43.3,29.89,NW,315,0.0,0.0,82,0.00,,,0.00,WUHU21623XXSP,2013-09-15 07:47:00,
2013-09-15 03:52:00,48.6,43.3,29.89,NW,315,0.0,0.0,82,0.00,,,0.00,WUHU21623XXSP,2013-09-15 07:52:00,
2013-09-15 03:57:00,48.6,43.3,29.89,West,270,0.0,0.0,82,0.00,,,0.00,WUHU21623XXSP,2013-09-15 07:57:00,
2013-09-15 04:02:00,48.7,43.4,29.90,NE,45,0.0,0.0,82,0.00,,,0.00,WUHU21623XXSP,2013-09-15 08:02:00,
2013-09-15 04:07:00,48.7,43.4,29.90,NE,45,0.0,0.0,82,0.00,,,0.00,WUHU21623XXSP,2013-09-15 08:07:00,
2013-09-15 04:12:00,48.9,43.6,29.89,NE,45,0.0,0.0,82,0.00,,,0.00,WUHU21623XXSP,2013-09-15 08:12:00,
2013-09-15 04:17:00,49.1,43.8,29.89,NE,45,0.0,0.0,82,0.00,,,0.00,WUHU21623XXSP,2013-09-15 08:17:00,
2013-09-15 04:22:00,49.3,44.0,29.90,NE,45,0.0,0.0,82,0.00,,,0.00,WUHU21623XXSP,2013-09-15 08:22:00,
2013-09-15 04:27:00,49.3,44.0,29.90,NE,45,0.0,0.0,82,0.00,,,0.00,WUHU21623XXSP,2013-09-15 08:27:00,
2013-09-15 04:32:00,49.6,44.0,29.90,NE,45,0.0,0.0,81,0.00,,,0.00,WUHU21623XXSP,2013-09-15 08:32:00,
2013-09-15 04:37:00,49.6,44.0,29.90,NE,45,0.0,0.0,81,0.00,,,0.00,WUHU21623XXSP,2013-09-15 08:37:00,
2013-09-15 04:42:00,49.6,44.0,29.90,NE,45,0.0,0.0,81,0.00,,,0.00,WUHU21623XXSP,2013-09-15 08:42:00,
2013-09-15 04:47:00,49.8,43.9,29.91,NE,45,0.0,0.0,80,0.00,,,0.00,WUHU21623XXSP,2013-09-15 08:47:00,
2013-09-15 04:52:00,49.8,43.9,29.91,NE,45,0.0,0.0,80,0.00,,,0.00,WUHU21623XXSP,2013-09-15 08:52:00,
2013-09-15 04:57:00,49.8,43.9,29.91,NE,45,0.0,0.0,80,0.00,,,0.00,WUHU21623XXSP,2013-09-15 08:57:00,
2013-09-15 05:02:00,50.2,43.9,29.92,NE,45,0.0,0.0,79,0.00,,,0.00,WUHU21623XXSP,2013-09-15 09:02:00,
2013-09-15 05:07:00,50.2,43.9,29.92,NE,45,0.0,0.0,79,0.00,,,0.00,WUHU21623XXSP,2013-09-15 09:07:00,
2013-09-15 05:12:00,50.2,43.9,29.92,NE,45,0.0,0.0,79,0.00,,,0.00,WUHU21623XXSP,2013-09-15 09:12:00,
2013-09-15 05:17:00,50.4,44.1,29.92,East,90,0.0,0.0,79,0.00,,,0.00,WUHU21623XXSP,2013-09-15 09:17:00,
2013-09-15 05:22:00,50.4,44.4,29.92,SE,135,0.0,0.0,80,0.00,,,0.00,WUHU21623XXSP,2013-09-15 09:22:00,
2013-09-15 05:27:00,50.5,44.6,29.92,SSE,157,0.0,0.0,80,0.00,,,0.00,WUHU21623XXSP,2013-09-15 09:27:00,
2013-09-15 05:32:00,50.7,44.4,29.91,SSW,202,0.0,0.0,79,0.00,,,0.00,WUHU21623XXSP,2013-09-15 09:32:00,
2013-09-15 05:37:00,50.7,44.4,29.92,ENE,67,0.0,0.0,79,0.00,,,0.00,WUHU21623XXSP,2013-09-15 09:37:00,
2013-09-15 05:42:00,50.9,44.6,29.92,ENE,67,0.0,0.0,79,0.00,,,0.00,WUHU21623XXSP,2013-09-15 09:42:00,
2013-09-15 05:47:00,50.9,44.6,29.92,East,90,0.0,0.0,79,0.00,,,0.00,WUHU21623XXSP,2013-09-15 09:47:00,
2013-09-15 05:52:00,51.1,44.8,29.91,East,90,0.0,0.0,79,0.00,,,0.00,WUHU21623XXSP,2013-09-15 09:52:00,
2013-09-15 05:57:00,51.1,44.8,29.92,ENE,67,0.0,0.0,79,0.00,,,0.00,WUHU21623XXSP,2013-09-15 09:57:00,
2013-09-15 06:02:00,51.1,44.5,29.92,ENE,67,0.0,0.0,78,0.00,,,0.00,WUHU21623XXSP,2013-09-15 10:02:00,
2013-09-15 06:07:00,51.1,44.5,29.92,SE,135,0.0,0.0,78,0.00,,,0.00,WUHU21623XXSP,2013-09-15 10:07:00,
2013-09-15 06:12:00,51.1,44.5,29.92,SSW,202,0.0,0.0,78,0.00,,,0.00,WUHU21623XXSP,2013-09-15 10:12:00,
2013-09-15 06:17:00,51.3,45.0,29.92,ESE,112,0.0,0.0,79,0.00,,,0.00,WUHU21623XXSP,2013-09-15 10:17:00,
2013-09-15 06:22:00,51.3,45.0,29.92,ESE,112,0.0,0.0,79,0.00,,,0.00,WUHU21623XXSP,2013-09-15 10:22:00,
2013-09-15 06:27:00,51.3,45.0,29.92,East,90,0.0,0.0,79,0.00,,,0.00,WUHU21623XXSP,2013-09-15 10:27:00,
2013-09-15 06:32:00,51.4,45.2,29.93,East,90,0.0,0.0,79,0.00,,,0.00,WUHU21623XXSP,2013-09-15 10:32:00,
2013-09-15 06:37:00,51.4,45.2,29.92,SE,135,0.0,0.0,79,0.00,,,0.00,WUHU21623XXSP,2013-09-15 10:37:00,
2013-09-15 06:42:00,51.4,45.2,29.93,ESE,112,0.0,0.0,79,0.00,,,0.00,WUHU21623XXSP,2013-09-15 10:42:00,
2013-09-15 06:47:00,51.4,45.2,29.93,East,90,0.0,0.0,79,0.00,,,0.00,WUHU21623XXSP,2013-09-15 10:47:00,
2013-09-15 06:52:00,51.4,45.2,29.93,SSE,157,0.0,0.0,79,0.00,,,0.00,WUHU21623XXSP,2013-09-15 10:52:00,
2013-09-15 06:57:00,51.4,45.2,29.93,SSE,157,0.0,0.0,79,0.00,,,0.00,WUHU21623XXSP,2013-09-15 10:57:00,
2013-09-15 07:02:00,51.6,45.3,29.93,ESE,112,0.0,0.0,79,0.00,,,0.00,WUHU21623XXSP,2013-09-15 11:02:00,
2013-09-15 07:07:00,51.6,45.3,29.92,ESE,112,0.0,0.0,79,0.00,,,0.00,WUHU21623XXSP,2013-09-15 11:07:00,
2013-09-15 07:11:00,51.6,45.3,29.92,ENE,67,0.0,0.0,79,0.00,,,0.00,WUHU21623XXSP,2013-09-15 11:11:00,
2013-09-15 07:16:00,51.6,45.0,29.92,ENE,67,0.0,0.0,78,0.00,,,0.00,WUHU21623XXSP,2013-09-15 11:16:00,
2013-09-15 07:21:00,51.6,45.0,29.93,ENE,67,0.0,0.0,78,0.00,,,0.00,WUHU21623XXSP,2013-09-15 11:21:00,
2013-09-15 07:26:00,51.4,44.8,29.93,ENE,67,0.0,0.0,78,0.00,,,0.00,WUHU21623XXSP,2013-09-15 11:26:00,
2013-09-15 07:31:00,51.4,44.8,29.93,SE,135,0.0,0.0,78,0.00,,,0.00,WUHU21623XXSP,2013-09-15 11:31:00,
2013-09-15 07:36:00,51.4,44.8,29.92,SE,135,0.0,0.0,78,0.00,,,0.00,WUHU21623XXSP,2013-09-15 11:36:00,
2013-09-15 07:41:00,51.4,45.2,29.92,SE,135,0.0,0.0,79,0.00,,,0.00,WUHU21623XXSP,2013-09-15 11:41:00,
2013-09-15 07:46:00,51.4,45.2,29.92,SE,135,0.0,0.0,79,0.00,,,0.00,WUHU21623XXSP,2013-09-15 11:46:00,
2013-09-15 07:51:00,51.4,45.2,29.92,SE,135,0.0,0.0,79,0.00,,,0.00,WUHU21623XXSP,2013-09-15 11:51:00,
2013-09-15 07:57:00,51.6,45.3,29.92,ESE,112,0.0,0.0,79,0.00,,,0.00,WUHU21623XXSP,2013-09-15 11:57:00,
2013-09-15 08:02:00,51.6,45.3,29.92,East,90,0.0,0.0,79,0.00,,,0.00,WUHU21623XXSP,2013-09-15 12:02:00,
2013-09-15 08:07:00,51.4,45.2,29.92,East,90,0.0,0.0,79,0.00,,,0.00,WUHU21623XXSP,2013-09-15 12:07:00,
2013-09-15 08:12:00,51.6,45.3,29.92,East,90,0.0,0.0,79,0.00,,,0.00,WUHU21623XXSP,2013-09-15 12:12:00,
2013-09-15 08:17:00,51.6,45.3,29.92,East,90,0.0,0.0,79,0.00,,,0.00,WUHU21623XXSP,2013-09-15 12:17:00,
2013-09-15 08:22:00,51.6,45.3,29.92,WNW,292,0.0,0.0,79,0.00,,,0.00,WUHU21623XXSP,2013-09-15 12:22:00,
2013-09-15 08:27:00,51.8,45.5,29.92,ENE,67,0.0,0.0,79,0.00,,,0.00,WUHU21623XXSP,2013-09-15 12:27:00,
2013-09-15 08:32:00,52.0,45.7,29.91,SSW,202,1.1,1.1,79,0.00,,,0.00,WUHU21623XXSP,2013-09-15 12:32:00,
2013-09-15 08:37:00,52.0,45.7,29.92,SSW,202,0.9,1.1,79,0.00,,,0.00,WUHU21623XXSP,2013-09-15 12:37:00,
2013-09-15 08:42:00,52.2,45.9,29.92,SW,225,0.0,0.9,79,0.00,,,0.00,WUHU21623XXSP,2013-09-15 12:42:00,
2013-09-15 08:47:00,52.3,46.0,29.92,SW,225,0.0,0.0,79,0.00,,,0.00,WUHU21623XXSP,2013-09-15 12:47:00,
2013-09-15 08:52:00,52.3,46.4,29.92,South,180,0.0,0.0,80,0.00,,,0.00,WUHU21623XXSP,2013-09-15 12:52:00,
2013-09-15 08:57:00,52.5,46.6,29.92,NE,45,0.0,0.0,79,0.00,,,0.00,WUHU21623XXSP,2013-09-15 12:57:00,
2013-09-15 09:02:00,52.9,46.2,29.91,SSE,157,0.0,0.0,78,0.00,,,0.00,WUHU21623XXSP,2013-09-15 13:02:00,
2013-09-15 09:07:00,53.1,46.4,29.91,South,180,0.0,1.3,78,0.00,,,0.00,WUHU21623XXSP,2013-09-15 13:07:00,
2013-09-15 09:12:00,53.2,46.2,29.91,NNE,22,0.0,1.3,77,0.00,,,0.00,WUHU21623XXSP,2013-09-15 13:12:00,
2013-09-15 09:17:00,53.4,46.8,29.91,SSE,157,2.0,2.0,78,0.00,,,0.00,WUHU21623XXSP,2013-09-15 13:17:00,
2013-09-15 09:22:00,53.4,46.8,29.91,ENE,67,0.0,2.0,78,0.00,,,0.00,WUHU21623XXSP,2013-09-15 13:22:00,
2013-09-15 09:27:00,53.4,46.8,29.91,SSE,157,0.0,0.0,78,0.00,,,0.00,WUHU21623XXSP,2013-09-15 13:27:00,
2013-09-15 09:32:00,53.4,47.1,29.91,SSE,157,0.9,2.2,79,0.00,,,0.00,WUHU21623XXSP,2013-09-15 13:32:00,
2013-09-15 09:37:00,53.6,47.3,29.91,SE,135,0.0,2.2,79,0.00,,,0.00,WUHU21623XXSP,2013-09-15 13:37:00,
2013-09-15 09:42:00,53.4,47.5,29.91,SE,135,0.0,0.9,80,0.00,,,0.00,WUHU21623XXSP,2013-09-15 13:42:00,
2013-09-15 09:47:00,53.4,47.8,29.90,ENE,67,0.0,0.0,81,0.00,,,0.00,WUHU21623XXSP,2013-09-15 13:47:00,
2013-09-15 09:52:00,53.4,47.8,29.90,ENE,67,0.0,0.0,81,0.00,,,0.00,WUHU21623XXSP,2013-09-15 13:52:00,
2013-09-15 09:57:00,53.4,47.8,29.90,ENE,67,0.0,0.0,81,0.00,,,0.00,WUHU21623XXSP,2013-09-15 13:57:00,
2013-09-15 10:02:00,53.2,47.9,29.91,ENE,67,0.0,0.0,82,0.00,,,0.00,WUHU21623XXSP,2013-09-15 14:02:00,
2013-09-15 10:07:00,53.2,47.9,29.90,ENE,67,0.0,0.0,82,0.00,,,0.00,WUHU21623XXSP,2013-09-15 14:07:00,
2013-09-15 10:12:00,53.2,47.9,29.90,ENE,67,0.0,0.0,82,0.00,,,0.00,WUHU21623XXSP,2013-09-15 14:12:00,
2013-09-15 10:17:00,53.1,48.0,29.90,ENE,67,0.0,0.0,83,0.00,,,0.00,WUHU21623XXSP,2013-09-15 14:17:00,
2013-09-15 10:22:00,53.2,48.2,29.90,ENE,67,0.0,0.0,83,0.00,,,0.00,WUHU21623XXSP,2013-09-15 14:22:00,
2013-09-15 10:27:00,53.2,48.5,29.91,ESE,112,0.0,0.0,84,0.00,,,0.00,WUHU21623XXSP,2013-09-15 14:27:00,
2013-09-15 10:32:00,53.4,48.7,29.91,SE,135,0.0,0.0,84,0.00,,,0.00,WUHU21623XXSP,2013-09-15 14:32:00,
2013-09-15 10:37:00,53.4,48.7,29.92,ENE,67,0.0,0.0,84,0.00,,,0.00,WUHU21623XXSP,2013-09-15 14:37:00,
2013-09-15 10:42:00,53.8,49.4,29.91,ENE,67,0.0,0.0,85,0.00,,,0.00,WUHU21623XXSP,2013-09-15 14:42:00,
2013-09-15 10:47:00,54.0,49.5,29.91,ENE,67,0.0,0.0,85,0.00,,,0.00,WUHU21623XXSP,2013-09-15 14:47:00,
2013-09-15 10:52:00,54.0,49.5,29.92,ENE,67,0.0,0.0,85,0.00,,,0.00,WUHU21623XXSP,2013-09-15 14:52:00,
2013-09-15 10:57:00,54.1,50.0,29.91,ENE,67,0.0,0.0,86,0.00,,,0.00,WUHU21623XXSP,2013-09-15 14:57:00,
2013-09-15 11:02:00,54.3,50.2,29.91,NW,315,0.0,0.0,86,0.02,,,0.02,WUHU21623XXSP,2013-09-15 15:02:00,
2013-09-15 11:07:00,54.5,50.4,29.91,SW,225,0.0,0.0,86,0.02,,,0.02,WUHU21623XXSP,2013-09-15 15:07:00,
2013-09-15 11:12:00,54.9,50.4,29.91,SW,225,0.0,2.0,85,0.02,,,0.02,WUHU21623XXSP,2013-09-15 15:12:00,
2013-09-15 11:17:00,55.0,50.6,29.91,East,90,0.0,2.0,85,0.02,,,0.02,WUHU21623XXSP,2013-09-15 15:17:00,
2013-09-15 11:22:00,55.2,50.7,29.91,SW,225,0.0,0.9,85,0.02,,,0.02,WUHU21623XXSP,2013-09-15 15:22:00,
2013-09-15 11:27:00,55.2,50.7,29.91,SSW,202,0.0,0.0,85,0.02,,,0.02,WUHU21623XXSP,2013-09-15 15:27:00,
2013-09-15 11:32:00,55.4,50.9,29.91,SE,135,0.0,0.0,85,0.02,,,0.02,WUHU21623XXSP,2013-09-15 15:32:00,
2013-09-15 11:37:00,55.6,51.1,29.91,WSW,247,0.0,0.0,85,0.02,,,0.02,WUHU21623XXSP,2013-09-15 15:37:00,
2013-09-15 11:42:00,55.6,51.1,29.91,SSW,202,0.7,0.7,85,0.02,,,0.02,WUHU21623XXSP,2013-09-15 15:42:00,
2013-09-15 11:47:00,55.8,51.3,29.91,North,0,0.0,0.7,85,0.02,,,0.02,WUHU21623XXSP,2013-09-15 15:47:00,
2013-09-15 11:52:00,55.9,51.4,29.91,NE,45,0.0,0.0,85,0.02,,,0.02,WUHU21623XXSP,2013-09-15 15:52:00,
2013-09-15 11:57:00,55.9,51.4,29.91,NE,45,0.0,0.0,85,0.02,,,0.02,WUHU21623XXSP,2013-09-15 15:57:00,
2013-09-15 12:02:00,55.9,51.4,29.90,NE,45,0.0,0.0,85,0.00,,,0.02,WUHU21623XXSP,2013-09-15 16:02:00,
2013-09-15 12:07:00,55.9,51.4,29.91,SW,225,0.0,0.0,85,0.00,,,0.02,WUHU21623XXSP,2013-09-15 16:07:00,
2013-09-15 12:12:00,56.1,51.6,29.91,South,180,2.2,2.2,85,0.00,,,0.02,WUHU21623XXSP,2013-09-15 16:12:00,
2013-09-15 12:17:00,56.3,51.8,29.91,NNW,337,0.0,2.2,85,0.00,,,0.02,WUHU21623XXSP,2013-09-15 16:17:00,
2013-09-15 12:22:00,56.3,51.8,29.91,SSW,211,2.0,4.3,85,0.00,,,0.02,WUHU21623XXSP,2013-09-15 16:22:00,
2013-09-15 12:27:00,56.3,51.8,29.91,NE,45,0.0,4.3,85,0.00,,,0.02,WUHU21623XXSP,2013-09-15 16:27:00,
2013-09-15 12:32:00,56.3,51.8,29.91,ESE,112,0.0,0.0,85,0.02,,,0.04,WUHU21623XXSP,2013-09-15 16:32:00,
2013-09-15 12:37:00,56.3,51.8,29.91,SE,135,0.0,0.0,85,0.02,,,0.04,WUHU21623XXSP,2013-09-15 16:37:00,
2013-09-15 12:42:00,56.3,51.8,29.91,South,180,0.0,0.0,85,0.02,,,0.04,WUHU21623XXSP,2013-09-15 16:42:00,
2013-09-15 12:47:00,56.5,52.3,29.91,SE,135,0.0,0.0,86,0.02,,,0.04,WUHU21623XXSP,2013-09-15 16:47:00,
2013-09-15 12:52:00,56.5,52.6,29.90,SSE,157,0.0,0.0,87,0.02,,,0.04,WUHU21623XXSP,2013-09-15 16:52:00,
2013-09-15 12:57:00,56.8,53.0,29.90,East,90,0.0,0.0,87,0.04,,,0.06,WUHU21623XXSP,2013-09-15 16:57:00,
2013-09-15 13:02:00,56.8,53.0,29.89,SE,135,0.0,0.0,87,0.04,,,0.06,WUHU21623XXSP,2013-09-15 17:02:00,
2013-09-15 13:07:00,56.8,53.0,29.89,South,180,0.0,0.0,87,0.04,,,0.06,WUHU21623XXSP,2013-09-15 17:07:00,
2013-09-15 13:12:00,56.8,53.0,29.89,ESE,112,0.0,0.0,87,0.04,,,0.06,WUHU21623XXSP,2013-09-15 17:12:00,
2013-09-15 13:17:00,57.0,52.8,29.89,East,90,0.0,0.0,86,0.04,,,0.06,WUHU21623XXSP,2013-09-15 17:17:00,
2013-09-15 13:22:00,57.0,52.8,29.90,East,90,0.0,0.0,86,0.04,,,0.06,WUHU21623XXSP,2013-09-15 17:22:00,
2013-09-15 13:27:00,57.0,53.2,29.90,East,90,0.0,0.0,87,0.04,,,0.06,WUHU21623XXSP,2013-09-15 17:27:00,
2013-09-15 13:32:00,57.0,53.2,29.90,East,90,0.0,0.0,87,0.02,,,0.06,WUHU21623XXSP,2013-09-15 17:32:00,
2013-09-15 13:37:00,57.0,53.2,29.90,East,90,0.0,0.0,87,0.02,,,0.06,WUHU21623XXSP,2013-09-15 17:37:00,
2013-09-15 13:42:00,57.0,53.2,29.90,East,90,0.0,0.0,87,0.02,,,0.06,WUHU21623XXSP,2013-09-15 17:42:00,
2013-09-15 13:47:00,57.0,53.2,29.90,East,90,0.0,0.0,87,0.02,,,0.06,WUHU21623XXSP,2013-09-15 17:47:00,
2013-09-15 13:52:00,57.0,53.2,29.91,East,90,0.0,0.0,87,0.02,,,0.06,WUHU21623XXSP,2013-09-15 17:52:00,
2013-09-15 13:57:00,57.0,53.2,29.91,East,90,0.0,0.0,87,0.00,,,0.06,WUHU21623XXSP,2013-09-15 17:57:00,
2013-09-15 14:02:00,57.0,53.2,29.90,East,90,0.0,0.0,87,0.00,,,0.06,WUHU21623XXSP,2013-09-15 18:02:00,
2013-09-15 14:07:00,57.0,53.2,29.90,SE,135,0.0,0.0,87,0.02,,,0.08,WUHU21623XXSP,2013-09-15 18:07:00,
2013-09-15 14:12:00,57.0,53.5,29.90,SE,135,0.0,0.0,88,0.02,,,0.08,WUHU21623XXSP,2013-09-15 18:12:00,
2013-09-15 14:17:00,57.4,53.9,29.90,SE,135,0.0,0.0,88,0.02,,,0.08,WUHU21623XXSP,2013-09-15 18:17:00,
2013-09-15 14:22:00,57.4,54.2,29.89,ESE,112,0.0,0.0,89,0.02,,,0.08,WUHU21623XXSP,2013-09-15 18:22:00,
2013-09-15 14:27:00,57.6,54.4,29.89,ESE,112,0.0,0.0,89,0.02,,,0.08,WUHU21623XXSP,2013-09-15 18:27:00,
2013-09-15 14:32:00,57.6,54.4,29.89,East,90,0.0,0.0,89,0.02,,,0.08,WUHU21623XXSP,2013-09-15 18:32:00,
2013-09-15 14:37:00,57.6,54.4,29.89,ESE,112,0.0,0.0,89,0.02,,,0.08,WUHU21623XXSP,2013-09-15 18:37:00,
2013-09-15 14:42:00,57.6,54.4,29.88,East,90,0.0,0.0,89,0.02,,,0.08,WUHU21623XXSP,2013-09-15 18:42:00,
2013-09-15 14:47:00,57.7,54.5,29.87,WSW,247,0.0,0.0,89,0.02,,,0.08,WUHU21623XXSP,2013-09-15 18:47:00,
2013-09-15 14:52:00,57.7,54.5,29.88,East,90,0.0,0.0,89,0.02,,,0.08,WUHU21623XXSP,2013-09-15 18:52:00,
2013-09-15 14:57:00,57.7,54.2,29.88,East,90,0.0,0.0,88,0.02,,,0.08,WUHU21623XXSP,2013-09-15 18:57:00,
2013-09-15 15:02:00,57.7,54.2,29.89,East,90,0.0,0.0,88,0.00,,,0.08,WUHU21623XXSP,2013-09-15 19:02:00,
2013-09-15 15:07:00,57.7,54.2,29.89,ESE,112,0.0,0.0,88,0.00,,,0.08,WUHU21623XXSP,2013-09-15 19:07:00,
2013-09-15 15:12:00,57.6,54.0,29.88,SSE,157,0.0,0.0,88,0.00,,,0.08,WUHU21623XXSP,2013-09-15 19:12:00,
2013-09-15 15:17:00,57.6,54.0,29.88,SE,135,0.0,0.0,88,0.00,,,0.08,WUHU21623XXSP,2013-09-15 19:17:00,
2013-09-15 15:18:00,57.6,54.0,29.88,SE,135,0.0,0.0,88,0.02,,,0.10,WUHU21623XXSP,2013-09-15 19:18:00,
2013-09-15 15:23:00,57.6,54.0,29.88,ESE,112,0.0,0.0,88,0.02,,,0.10,WUHU21623XXSP,2013-09-15 19:23:00,
2013-09-15 15:28:00,57.6,54.0,29.89,East,90,0.0,0.0,88,0.02,,,0.10,WUHU21623XXSP,2013-09-15 19:28:00,
2013-09-15 15:33:00,57.4,53.9,29.89,East,90,0.0,0.0,88,0.02,,,0.10,WUHU21623XXSP,2013-09-15 19:33:00,
2013-09-15 15:38:00,57.4,53.9,29.89,East,90,0.0,0.0,88,0.02,,,0.10,WUHU21623XXSP,2013-09-15 19:38:00,
2013-09-15 15:43:00,57.4,53.9,29.89,NNE,22,0.0,0.0,88,0.02,,,0.10,WUHU21623XXSP,2013-09-15 19:43:00,
2013-09-15 15:48:00,57.4,53.9,29.89,NNE,22,0.0,0.0,88,0.02,,,0.10,WUHU21623XXSP,2013-09-15 19:48:00,
2013-09-15 15:53:00,57.4,53.9,29.90,NNE,22,0.0,0.0,88,0.02,,,0.10,WUHU21623XXSP,2013-09-15 19:53:00,
2013-09-15 15:58:00,57.4,53.9,29.89,NNE,22,0.0,0.0,88,0.02,,,0.10,WUHU21623XXSP,2013-09-15 19:58:00,
2013-09-15 16:03:00,57.2,53.7,29.90,NNE,22,0.0,0.0,88,0.04,,,0.12,WUHU21623XXSP,2013-09-15 20:03:00,
2013-09-15 16:08:00,57.0,53.8,29.90,NNE,22,0.0,0.0,89,0.04,,,0.12,WUHU21623XXSP,2013-09-15 20:08:00,
2013-09-15 16:13:00,57.0,53.8,29.90,NNE,22,0.0,0.0,89,0.04,,,0.12,WUHU21623XXSP,2013-09-15 20:13:00,
2013-09-15 16:18:00,57.0,53.8,29.90,NNE,22,0.0,0.0,89,0.02,,,0.12,WUHU21623XXSP,2013-09-15 20:18:00,
2013-09-15 16:23:00,57.0,53.8,29.90,NNE,22,0.0,0.0,89,0.02,,,0.12,WUHU21623XXSP,2013-09-15 20:23:00,
2013-09-15 16:28:00,57.0,53.5,29.91,NNE,22,0.0,0.0,88,0.02,,,0.12,WUHU21623XXSP,2013-09-15 20:28:00,
2013-09-15 16:33:00,57.0,53.8,29.91,NNE,22,0.0,0.0,89,0.02,,,0.12,WUHU21623XXSP,2013-09-15 20:33:00,
2013-09-15 16:38:00,56.8,53.6,29.91,NNE,22,0.0,0.0,89,0.02,,,0.12,WUHU21623XXSP,2013-09-15 20:38:00,
2013-09-15 16:43:00,56.8,53.6,29.90,NNE,22,0.0,0.0,89,0.02,,,0.12,WUHU21623XXSP,2013-09-15 20:43:00,
2013-09-15 16:48:00,57.0,53.8,29.90,NE,45,0.0,0.0,89,0.02,,,0.12,WUHU21623XXSP,2013-09-15 20:48:00,
2013-09-15 16:53:00,57.0,53.8,29.89,NNE,22,0.0,0.0,89,0.02,,,0.12,WUHU21623XXSP,2013-09-15 20:53:00,
2013-09-15 16:58:00,57.0,53.8,29.89,NNE,22,0.0,0.0,89,0.02,,,0.12,WUHU21623XXSP,2013-09-15 20:58:00,
2013-09-15 17:03:00,56.8,53.6,29.89,NNW,337,0.0,0.0,89,0.02,,,0.14,WUHU21623XXSP,2013-09-15 21:03:00,
2013-09-15 17:08:00,56.8,53.6,29.89,NNW,337,0.0,0.0,89,0.02,,,0.14,WUHU21623XXSP,2013-09-15 21:08:00,
2013-09-15 17:13:00,56.8,53.6,29.89,NNW,337,0.0,0.0,89,0.02,,,0.14,WUHU21623XXSP,2013-09-15 21:13:00,
2013-09-15 17:18:00,56.8,53.6,29.89,NNW,337,0.0,0.0,89,0.02,,,0.14,WUHU21623XXSP,2013-09-15 21:18:00,
2013-09-15 17:23:00,56.8,53.6,29.89,NNW,337,0.0,0.0,89,0.04,,,0.16,WUHU21623XXSP,2013-09-15 21:23:00,
2013-09-15 17:28:00,56.8,53.6,29.88,NNW,337,0.0,0.0,89,0.04,,,0.16,WUHU21623XXSP,2013-09-15 21:28:00,
2013-09-15 17:33:00,56.8,53.6,29.89,NNW,337,0.0,0.0,89,0.04,,,0.16,WUHU21623XXSP,2013-09-15 21:33:00,
2013-09-15 17:38:00,56.5,53.3,29.89,NNW,337,0.0,0.0,89,0.04,,,0.16,WUHU21623XXSP,2013-09-15 21:38:00,
2013-09-15 17:43:00,56.5,53.3,29.89,NNW,337,0.0,0.0,89,0.04,,,0.16,WUHU21623XXSP,2013-09-15 21:43:00,
2013-09-15 17:48:00,56.5,53.3,29.89,NNW,337,0.0,0.0,89,0.04,,,0.16,WUHU21623XXSP,2013-09-15 21:48:00,
2013-09-15 17:53:00,56.5,53.3,29.89,NNW,337,0.0,0.0,89,0.04,,,0.16,WUHU21623XXSP,2013-09-15 21:53:00,
2013-09-15 17:58:00,56.5,53.3,29.88,NNW,337,0.0,0.0,89,0.04,,,0.16,WUHU21623XXSP,2013-09-15 21:58:00,
2013-09-15 18:03:00,56.5,53.3,29.89,NNW,337,0.0,0.0,89,0.02,,,0.16,WUHU21623XXSP,2013-09-15 22:03:00,
2013-09-15 18:08:00,56.3,53.1,29.89,NNW,337,0.0,0.0,89,0.02,,,0.16,WUHU21623XXSP,2013-09-15 22:08:00,
2013-09-15 18:13:00,56.3,53.1,29.89,NNW,337,0.0,0.0,89,0.02,,,0.16,WUHU21623XXSP,2013-09-15 22:13:00,
2013-09-15 18:18:00,56.3,53.1,29.89,NNW,337,0.0,0.0,89,0.02,,,0.16,WUHU21623XXSP,2013-09-15 22:18:00,
2013-09-15 18:23:00,56.3,53.1,29.89,NNW,337,0.0,0.0,89,0.00,,,0.16,WUHU21623XXSP,2013-09-15 22:23:00,
2013-09-15 18:28:00,56.1,52.9,29.89,NNW,337,0.0,0.0,89,0.00,,,0.16,WUHU21623XXSP,2013-09-15 22:28:00,
2013-09-15 18:33:00,56.1,52.9,29.90,NNW,337,0.0,0.0,89,0.00,,,0.16,WUHU21623XXSP,2013-09-15 22:33:00,
2013-09-15 18:38:00,56.1,52.9,29.90,NNW,337,0.0,0.0,89,0.00,,,0.16,WUHU21623XXSP,2013-09-15 22:38:00,
2013-09-15 18:43:00,55.9,52.7,29.90,NNW,337,0.0,0.0,89,0.00,,,0.16,WUHU21623XXSP,2013-09-15 22:43:00,
2013-09-15 18:48:00,55.9,52.7,29.90,NNW,337,0.0,0.0,89,0.00,,,0.16,WUHU21623XXSP,2013-09-15 22:48:00,
2013-09-15 18:53:00,55.9,52.7,29.90,NNW,337,0.0,0.0,89,0.02,,,0.18,WUHU21623XXSP,2013-09-15 22:53:00,
2013-09-15 18:58:00,55.9,52.7,29.90,NNW,337,0.0,0.0,89,0.02,,,0.18,WUHU21623XXSP,2013-09-15 22:58:00,
2013-09-15 19:03:00,55.8,52.6,29.91,NNW,337,0.0,0.0,89,0.02,,,0.18,WUHU21623XXSP,2013-09-15 23:03:00,
2013-09-15 19:08:00,55.8,52.6,29.90,NNW,337,0.0,0.0,89,0.02,,,0.18,WUHU21623XXSP,2013-09-15 23:08:00,
2013-09-15 19:13:00,55.8,52.6,29.90,NNW,337,0.0,0.0,89,0.02,,,0.18,WUHU21623XXSP,2013-09-15 23:13:00,
2013-09-15 19:18:00,55.8,52.6,29.91,NNW,337,0.0,0.0,89,0.02,,,0.18,WUHU21623XXSP,2013-09-15 23:18:00,
2013-09-15 19:23:00,55.8,52.6,29.92,NNW,337,0.0,0.0,89,0.02,,,0.18,WUHU21623XXSP,2013-09-15 23:23:00,
2013-09-15 19:28:00,55.8,52.6,29.92,NNW,337,0.0,0.0,89,0.02,,,0.18,WUHU21623XXSP,2013-09-15 23:28:00,
2013-09-15 19:33:00,55.8,52.6,29.91,NNW,337,0.0,0.0,89,0.02,,,0.18,WUHU21623XXSP,2013-09-15 23:33:00,
2013-09-15 19:38:00,55.8,52.6,29.91,NNW,337,0.0,0.0,89,0.02,,,0.18,WUHU21623XXSP,2013-09-15 23:38:00,
2013-09-15 19:43:00,55.8,52.9,29.91,NNW,337,0.0,0.0,90,0.02,,,0.18,WUHU21623XXSP,2013-09-15 23:43:00,
2013-09-15 19:48:00,55.8,52.9,29.91,NNW,337,0.0,0.0,90,0.02,,,0.18,WUHU21623XXSP,2013-09-15 23:48:00,
2013-09-15 19:53:00,55.8,52.9,29.91,NNW,337,0.0,0.0,90,0.00,,,0.18,WUHU21623XXSP,2013-09-15 23:53:00,
2013-09-15 19:58:00,55.8,52.9,29.91,NNW,337,0.0,0.0,90,0.00,,,0.18,WUHU21623XXSP,2013-09-15 23:58:00,
2013-09-15 20:03:00,55.8,52.9,29.92,NNW,337,0.0,0.0,90,0.00,,,0.18,WUHU21623XXSP,2013-09-16 00:03:00,
2013-09-15 20:08:00,55.6,52.7,29.92,NNW,337,0.0,0.0,90,0.00,,,0.18,WUHU21623XXSP,2013-09-16 00:08:00,
2013-09-15 20:13:00,55.6,52.7,29.92,NNW,337,0.0,0.0,90,0.00,,,0.18,WUHU21623XXSP,2013-09-16 00:13:00,
2013-09-15 20:18:00,55.6,52.7,29.92,NNW,337,0.0,0.0,90,0.00,,,0.18,WUHU21623XXSP,2013-09-16 00:18:00,
2013-09-15 20:23:00,55.6,52.7,29.92,NNW,337,0.0,0.0,90,0.00,,,0.18,WUHU21623XXSP,2013-09-16 00:23:00,
2013-09-15 20:28:00,55.6,52.7,29.92,NNW,337,0.0,0.0,90,0.00,,,0.18,WUHU21623XXSP,2013-09-16 00:28:00,
2013-09-15 20:33:00,55.4,52.5,29.92,NNW,337,0.0,0.0,90,0.00,,,0.18,WUHU21623XXSP,2013-09-16 00:33:00,
2013-09-15 20:37:00,55.4,52.5,29.93,NNW,337,0.0,0.0,90,0.00,,,0.18,WUHU21623XXSP,2013-09-16 00:37:00,
2013-09-15 20:42:00,55.4,52.5,29.93,NNW,337,0.0,0.0,90,0.00,,,0.18,WUHU21623XXSP,2013-09-16 00:42:00,
2013-09-15 20:47:00,55.4,52.5,29.93,NNW,337,0.0,0.0,90,0.00,,,0.18,WUHU21623XXSP,2013-09-16 00:47:00,
2013-09-15 20:52:00,55.6,52.7,29.93,NNW,337,0.0,0.0,90,0.00,,,0.18,WUHU21623XXSP,2013-09-16 00:52:00,
2013-09-15 20:57:00,55.6,52.7,29.93,NNW,337,0.0,0.0,90,0.00,,,0.18,WUHU21623XXSP,2013-09-16 00:57:00,
2013-09-15 21:03:00,55.6,52.7,29.93,NNW,337,0.0,0.0,90,0.00,,,0.18,WUHU21623XXSP,2013-09-16 01:03:00,
2013-09-15 21:08:00,55.6,52.7,29.94,NNW,337,0.0,0.0,90,0.00,,,0.18,WUHU21623XXSP,2013-09-16 01:08:00,
2013-09-15 21:13:00,55.6,52.7,29.94,NNW,337,0.0,0.0,90,0.00,,,0.18,WUHU21623XXSP,2013-09-16 01:13:00,
2013-09-15 21:18:00,55.6,52.7,29.94,NNW,337,0.0,0.0,90,0.00,,,0.18,WUHU21623XXSP,2013-09-16 01:18:00,
2013-09-15 21:23:00,55.6,52.7,29.94,NNW,337,0.0,0.0,90,0.00,,,0.18,WUHU21623XXSP,2013-09-16 01:23:00,
2013-09-15 21:28:00,55.6,52.7,29.94,NNW,337,0.0,0.0,90,0.00,,,0.18,WUHU21623XXSP,2013-09-16 01:28:00,
2013-09-15 21:33:00,55.6,52.7,29.94,NNW,337,0.0,0.0,90,0.00,,,0.18,WUHU21623XXSP,2013-09-16 01:33:00,
2013-09-15 21:38:00,55.6,52.7,29.95,NNW,337,0.0,19.2,90,0.00,,,0.18,WUHU21623XXSP,2013-09-16 01:38:00,
2013-09-15 21:43:00,55.6,52.7,29.95,NNW,337,0.0,19.2,90,0.00,,,0.18,WUHU21623XXSP,2013-09-16 01:43:00,
2013-09-15 21:48:00,55.6,52.7,29.95,NNW,337,0.0,0.0,90,0.00,,,0.18,WUHU21623XXSP,2013-09-16 01:48:00,
2013-09-15 21:53:00,55.6,52.7,29.95,NNW,337,0.0,0.0,90,0.00,,,0.18,WUHU21623XXSP,2013-09-16 01:53:00,
2013-09-15 21:58:00,55.6,52.7,29.95,NNW,337,0.0,0.0,90,0.00,,,0.18,WUHU21623XXSP,2013-09-16 01:58:00,
2013-09-15 22:03:00,55.6,52.7,29.95,NNW,337,0.0,0.0,90,0.00,,,0.18,WUHU21623XXSP,2013-09-16 02:03:00,
2013-09-15 22:08:00,55.6,52.7,29.96,NNW,337,0.0,0.0,90,0.00,,,0.18,WUHU21623XXSP,2013-09-16 02:08:00,
2013-09-15 22:13:00,55.6,52.7,29.96,NNW,337,0.0,0.0,90,0.00,,,0.18,WUHU21623XXSP,2013-09-16 02:13:00,
2013-09-15 22:18:00,55.6,52.7,29.96,NNW,337,0.0,0.0,90,0.00,,,0.18,WUHU21623XXSP,2013-09-16 02:18:00,
2013-09-15 22:23:00,55.6,52.7,29.96,NNW,337,0.0,0.0,90,0.00,,,0.18,WUHU21623XXSP,2013-09-16 02:23:00,
2013-09-15 22:28:00,55.6,52.7,29.96,NNW,337,0.0,0.0,90,0.00,,,0.18,WUHU21623XXSP,2013-09-16 02:28:00,
2013-09-15 22:33:00,55.6,52.7,29.96,NNW,337,0.0,0.0,90,0.00,,,0.18,WUHU21623XXSP,2013-09-16 02:33:00,
2013-09-15 22:38:00,55.6,52.7,29.96,NNW,337,0.0,0.0,90,0.00,,,0.18,WUHU21623XXSP,2013-09-16 02:38:00,
2013-09-15 22:43:00,55.6,52.7,29.96,NNW,337,0.0,0.0,90,0.00,,,0.18,WUHU21623XXSP,2013-09-16 02:43:00,
2013-09-15 22:48:00,55.6,52.7,29.97,NNW,337,0.0,0.0,90,0.00,,,0.18,WUHU21623XXSP,2013-09-16 02:48:00,
2013-09-15 22:53:00,55.6,52.7,29.97,NNW,337,0.0,0.0,90,0.00,,,0.18,WUHU21623XXSP,2013-09-16 02:53:00,
2013-09-15 22:58:00,55.6,52.7,29.97,NNW,337,0.0,0.0,90,0.00,,,0.18,WUHU21623XXSP,2013-09-16 02:58:00,
2013-09-15 23:03:00,55.6,52.7,29.97,NNW,337,0.0,0.0,90,0.00,,,0.18,WUHU21623XXSP,2013-09-16 03:03:00,
2013-09-15 23:08:00,55.6,52.7,29.97,NNW,337,0.0,0.0,90,0.00,,,0.18,WUHU21623XXSP,2013-09-16 03:08:00,
2013-09-15 23:13:00,55.6,52.7,29.97,NNW,337,0.0,0.0,90,0.00,,,0.18,WUHU21623XXSP,2013-09-16 03:13:00,
2013-09-15 23:18:00,55.6,52.7,29.97,NNW,337,0.0,0.0,90,0.00,,,0.18,WUHU21623XXSP,2013-09-16 03:18:00,
2013-09-15 23:23:00,55.6,52.7,29.97,NNW,337,0.0,0.0,90,0.00,,,0.18,WUHU21623XXSP,2013-09-16 03:23:00,
2013-09-15 23:28:00,55.6,52.7,29.97,NNW,337,0.0,0.0,90,0.00,,,0.18,WUHU21623XXSP,2013-09-16 03:28:00,
2013-09-15 23:33:00,55.6,52.7,29.97,NNW,337,0.0,0.0,90,0.00,,,0.18,WUHU21623XXSP,2013-09-16 03:33:00,
2013-09-15 23:38:00,55.6,52.7,29.98,NNW,337,0.0,0.0,90,0.00,,,0.18,WUHU21623XXSP,2013-09-16 03:38:00,
2013-09-15 23:43:00,55.4,52.5,29.98,NNW,337,0.0,0.0,90,0.00,,,0.18,WUHU21623XXSP,2013-09-16 03:43:00,
2013-09-15 23:48:00,55.6,52.7,29.98,NNW,337,0.0,0.0,90,0.00,,,0.18,WUHU21623XXSP,2013-09-16 03:48:00,
2013-09-15 23:53:00,55.6,52.7,29.98,NNW,337,0.0,0.0,90,0.00,,,0.18,WUHU21623XXSP,2013-09-16 03:53:00,
2013-09-15 23:58:00,55.6,52.7,29.98,NNW,337,0.0,0.0,90,0.00,,,0.18,WUHU21623XXSP,2013-09-16 03:58:00,